sensor_id;sensor_type;location;lat;lon;timestamp;P1;durP1;ratioP1;P2;durP2;ratioP2
6121;SDS011;3091;51.506;7.672;2023-02-14T00:01:15;25.90;;;24.50;;
6121;SDS011;3091;51.506;7.672;2023-02-14T00:03:41;26.93;;;25.50;;
6121;SDS011;3091;51.506;7.672;2023-02-14T00:06:08;25.83;;;24.43;;
6121;SDS011;3091;51.506;7.672;2023-02-14T00:08:35;24.60;;;23.30;;
6121;SDS011;3091;51.506;7.672;2023-02-14T00:11:03;25.30;;;23.90;;
6121;SDS011;3091;51.506;7.672;2023-02-14T00:13:29;25.70;;;24.30;;
6121;SDS011;3091;51.506;7.672;2023-02-14T00:15:55;26.90;;;25.50;;
6121;SDS011;3091;51.506;7.672;2023-02-14T00:18:21;26.20;;;24.63;;
6121;SDS011;3091;51.506;7.672;2023-02-14T00:21:15;25.23;;;23.83;;
6121;SDS011;3091;51.506;7.672;2023-02-14T00:23:41;25.33;;;23.93;;
6121;SDS011;3091;51.506;7.672;2023-02-14T00:26:11;25.87;;;24.47;;
6121;SDS011;3091;51.506;7.672;2023-02-14T00:28:38;26.00;;;24.50;;
6121;SDS011;3091;51.506;7.672;2023-02-14T00:31:04;25.30;;;23.90;;
6121;SDS011;3091;51.506;7.672;2023-02-14T00:33:30;27.40;;;25.40;;
6121;SDS011;3091;51.506;7.672;2023-02-14T00:35:56;23.80;;;22.50;;
6121;SDS011;3091;51.506;7.672;2023-02-14T00:38:22;24.30;;;22.90;;
6121;SDS011;3091;51.506;7.672;2023-02-14T00:40:48;23.93;;;22.53;;
6121;SDS011;3091;51.506;7.672;2023-02-14T00:43:14;23.20;;;21.90;;
6121;SDS011;3091;51.506;7.672;2023-02-14T00:45:40;25.47;;;23.97;;
6121;SDS011;3091;51.506;7.672;2023-02-14T00:48:06;22.87;;;21.57;;
6121;SDS011;3091;51.506;7.672;2023-02-14T00:50:32;22.40;;;21.10;;
6121;SDS011;3091;51.506;7.672;2023-02-14T00:52:58;23.47;;;22.17;;
6121;SDS011;3091;51.506;7.672;2023-02-14T00:55:24;24.10;;;22.90;;
6121;SDS011;3091;51.506;7.672;2023-02-14T00:57:50;24.60;;;22.63;;
6121;SDS011;3091;51.506;7.672;2023-02-14T01:00:16;26.47;;;24.93;;
6121;SDS011;3091;51.506;7.672;2023-02-14T01:02:42;23.73;;;22.50;;
6121;SDS011;3091;51.506;7.672;2023-02-14T01:05:08;25.63;;;24.13;;
6121;SDS011;3091;51.506;7.672;2023-02-14T01:07:34;24.10;;;22.80;;
6121;SDS011;3091;51.506;7.672;2023-02-14T01:10:00;24.17;;;22.83;;
6121;SDS011;3091;51.506;7.672;2023-02-14T01:12:26;23.13;;;21.47;;
6121;SDS011;3091;51.506;7.672;2023-02-14T01:14:53;25.07;;;23.60;;
6121;SDS011;3091;51.506;7.672;2023-02-14T01:17:19;24.10;;;22.90;;
6121;SDS011;3091;51.506;7.672;2023-02-14T01:19:45;23.87;;;22.67;;
6121;SDS011;3091;51.506;7.672;2023-02-14T01:22:11;23.30;;;22.20;;
6121;SDS011;3091;51.506;7.672;2023-02-14T01:24:37;24.50;;;23.20;;
6121;SDS011;3091;51.506;7.672;2023-02-14T01:27:03;24.10;;;22.90;;
6121;SDS011;3091;51.506;7.672;2023-02-14T01:29:29;24.13;;;22.70;;
6121;SDS011;3091;51.506;7.672;2023-02-14T01:31:55;25.30;;;23.83;;
6121;SDS011;3091;51.506;7.672;2023-02-14T01:34:21;25.53;;;23.97;;
6121;SDS011;3091;51.506;7.672;2023-02-14T01:36:47;25.20;;;23.80;;
6121;SDS011;3091;51.506;7.672;2023-02-14T01:39:14;25.23;;;23.93;;
6121;SDS011;3091;51.506;7.672;2023-02-14T01:41:40;24.90;;;23.23;;
6121;SDS011;3091;51.506;7.672;2023-02-14T01:44:53;24.87;;;23.40;;
6121;SDS011;3091;51.506;7.672;2023-02-14T01:46:53;23.63;;;21.97;;
6121;SDS011;3091;51.506;7.672;2023-02-14T01:49:25;23.57;;;22.27;;
6121;SDS011;3091;51.506;7.672;2023-02-14T01:54:21;22.30;;;21.30;;
6121;SDS011;3091;51.506;7.672;2023-02-14T01:56:50;21.70;;;20.70;;
6121;SDS011;3091;51.506;7.672;2023-02-14T01:59:18;24.87;;;23.20;;
6121;SDS011;3091;51.506;7.672;2023-02-14T02:01:45;21.70;;;20.23;;
6121;SDS011;3091;51.506;7.672;2023-02-14T02:04:14;20.77;;;19.77;;
6121;SDS011;3091;51.506;7.672;2023-02-14T02:06:43;21.10;;;20.10;;
6121;SDS011;3091;51.506;7.672;2023-02-14T02:09:12;21.63;;;20.33;;
6121;SDS011;3091;51.506;7.672;2023-02-14T02:11:40;21.57;;;20.47;;
6121;SDS011;3091;51.506;7.672;2023-02-14T02:14:14;19.93;;;19.03;;
6121;SDS011;3091;51.506;7.672;2023-02-14T02:36:45;18.30;;;17.60;;
6121;SDS011;3091;51.506;7.672;2023-02-14T02:39:33;20.23;;;19.33;;
6121;SDS011;3091;51.506;7.672;2023-02-14T02:42:08;20.30;;;19.40;;
6121;SDS011;3091;51.506;7.672;2023-02-14T02:44:40;21.00;;;19.90;;
6121;SDS011;3091;51.506;7.672;2023-02-14T02:47:09;19.37;;;18.47;;
6121;SDS011;3091;51.506;7.672;2023-02-14T02:55:25;19.30;;;18.50;;
6121;SDS011;3091;51.506;7.672;2023-02-14T02:57:52;20.37;;;19.27;;
6121;SDS011;3091;51.506;7.672;2023-02-14T03:00:19;19.17;;;18.37;;
6121;SDS011;3091;51.506;7.672;2023-02-14T03:02:47;21.20;;;20.30;;
6121;SDS011;3091;51.506;7.672;2023-02-14T03:05:33;19.40;;;18.50;;
6121;SDS011;3091;51.506;7.672;2023-02-14T03:08:00;19.83;;;18.93;;
6121;SDS011;3091;51.506;7.672;2023-02-14T03:10:29;19.70;;;18.80;;
6121;SDS011;3091;51.506;7.672;2023-02-14T03:20:52;18.87;;;18.07;;
6121;SDS011;3091;51.506;7.672;2023-02-14T03:28:25;19.30;;;18.40;;
6121;SDS011;3091;51.506;7.672;2023-02-14T03:31:01;19.80;;;18.90;;
6121;SDS011;3091;51.506;7.672;2023-02-14T03:33:29;19.40;;;18.50;;
6121;SDS011;3091;51.506;7.672;2023-02-14T03:36:00;19.87;;;18.97;;
6121;SDS011;3091;51.506;7.672;2023-02-14T03:39:09;20.63;;;19.73;;
6121;SDS011;3091;51.506;7.672;2023-02-14T03:41:20;20.00;;;19.03;;
6121;SDS011;3091;51.506;7.672;2023-02-14T03:43:48;20.13;;;19.13;;
6121;SDS011;3091;51.506;7.672;2023-02-14T03:46:19;20.07;;;19.07;;
6121;SDS011;3091;51.506;7.672;2023-02-14T03:48:48;20.50;;;19.27;;
6121;SDS011;3091;51.506;7.672;2023-02-14T03:51:16;20.87;;;19.87;;
6121;SDS011;3091;51.506;7.672;2023-02-14T03:53:43;19.60;;;18.70;;
6121;SDS011;3091;51.506;7.672;2023-02-14T03:58:47;20.80;;;19.67;;
6121;SDS011;3091;51.506;7.672;2023-02-14T04:01:20;20.10;;;19.10;;
6121;SDS011;3091;51.506;7.672;2023-02-14T04:03:49;20.10;;;19.00;;
6121;SDS011;3091;51.506;7.672;2023-02-14T04:06:17;19.67;;;18.60;;
6121;SDS011;3091;51.506;7.672;2023-02-14T04:08:43;21.13;;;19.17;;
6121;SDS011;3091;51.506;7.672;2023-02-14T04:11:09;19.60;;;18.63;;
6121;SDS011;3091;51.506;7.672;2023-02-14T04:13:36;20.67;;;19.57;;
6121;SDS011;3091;51.506;7.672;2023-02-14T04:16:02;19.63;;;18.73;;
6121;SDS011;3091;51.506;7.672;2023-02-14T04:18:28;19.57;;;18.67;;
6121;SDS011;3091;51.506;7.672;2023-02-14T04:21:13;19.83;;;18.80;;
6121;SDS011;3091;51.506;7.672;2023-02-14T04:23:39;19.90;;;18.90;;
6121;SDS011;3091;51.506;7.672;2023-02-14T04:26:05;20.40;;;19.47;;
6121;SDS011;3091;51.506;7.672;2023-02-14T04:28:31;19.07;;;18.27;;
6121;SDS011;3091;51.506;7.672;2023-02-14T04:31:01;19.90;;;19.00;;
6121;SDS011;3091;51.506;7.672;2023-02-14T04:33:28;19.57;;;18.77;;
6121;SDS011;3091;51.506;7.672;2023-02-14T04:35:54;19.57;;;18.77;;
6121;SDS011;3091;51.506;7.672;2023-02-14T04:38:20;20.37;;;19.47;;
6121;SDS011;3091;51.506;7.672;2023-02-14T04:40:49;19.87;;;18.97;;
6121;SDS011;3091;51.506;7.672;2023-02-14T04:43:16;19.50;;;18.70;;
6121;SDS011;3091;51.506;7.672;2023-02-14T04:45:42;19.53;;;18.67;;
6121;SDS011;3091;51.506;7.672;2023-02-14T04:48:08;20.20;;;19.30;;
6121;SDS011;3091;51.506;7.672;2023-02-14T04:50:34;18.93;;;18.13;;
6121;SDS011;3091;51.506;7.672;2023-02-14T04:53:00;19.60;;;18.70;;
6121;SDS011;3091;51.506;7.672;2023-02-14T04:55:26;21.10;;;19.90;;
6121;SDS011;3091;51.506;7.672;2023-02-14T04:57:52;19.70;;;18.80;;
6121;SDS011;3091;51.506;7.672;2023-02-14T05:00:18;19.70;;;18.80;;
6121;SDS011;3091;51.506;7.672;2023-02-14T05:02:44;21.83;;;20.63;;
6121;SDS011;3091;51.506;7.672;2023-02-14T05:05:10;19.00;;;18.10;;
6121;SDS011;3091;51.506;7.672;2023-02-14T05:07:36;18.93;;;18.03;;
6121;SDS011;3091;51.506;7.672;2023-02-14T05:10:03;19.40;;;18.50;;
6121;SDS011;3091;51.506;7.672;2023-02-14T05:12:29;20.40;;;19.40;;
6121;SDS011;3091;51.506;7.672;2023-02-14T05:14:55;19.73;;;18.73;;
6121;SDS011;3091;51.506;7.672;2023-02-14T05:17:22;18.60;;;17.80;;
6121;SDS011;3091;51.506;7.672;2023-02-14T05:19:48;21.47;;;19.87;;
6121;SDS011;3091;51.506;7.672;2023-02-14T05:22:14;18.80;;;17.90;;
6121;SDS011;3091;51.506;7.672;2023-02-14T05:24:40;20.27;;;19.23;;
6121;SDS011;3091;51.506;7.672;2023-02-14T05:27:09;19.97;;;18.27;;
6121;SDS011;3091;51.506;7.672;2023-02-14T05:29:36;19.00;;;18.00;;
6121;SDS011;3091;51.506;7.672;2023-02-14T05:32:04;20.10;;;18.90;;
6121;SDS011;3091;51.506;7.672;2023-02-14T05:34:30;18.23;;;17.43;;
6121;SDS011;3091;51.506;7.672;2023-02-14T05:36:56;18.13;;;17.33;;
6121;SDS011;3091;51.506;7.672;2023-02-14T05:39:22;20.00;;;19.00;;
6121;SDS011;3091;51.506;7.672;2023-02-14T05:41:48;18.30;;;17.40;;
6121;SDS011;3091;51.506;7.672;2023-02-14T05:44:14;19.33;;;18.43;;
6121;SDS011;3091;51.506;7.672;2023-02-14T05:46:40;19.70;;;18.60;;
6121;SDS011;3091;51.506;7.672;2023-02-14T05:49:06;19.80;;;18.80;;
6121;SDS011;3091;51.506;7.672;2023-02-14T05:51:32;20.73;;;19.63;;
6121;SDS011;3091;51.506;7.672;2023-02-14T05:53:58;18.90;;;17.60;;
6121;SDS011;3091;51.506;7.672;2023-02-14T05:56:25;18.47;;;17.67;;
6121;SDS011;3091;51.506;7.672;2023-02-14T05:58:51;20.60;;;19.40;;
6121;SDS011;3091;51.506;7.672;2023-02-14T06:01:17;22.23;;;20.73;;
6121;SDS011;3091;51.506;7.672;2023-02-14T06:03:43;21.13;;;20.13;;
6121;SDS011;3091;51.506;7.672;2023-02-14T06:06:09;20.30;;;19.40;;
6121;SDS011;3091;51.506;7.672;2023-02-14T06:08:35;19.07;;;18.17;;
6121;SDS011;3091;51.506;7.672;2023-02-14T06:11:03;19.33;;;18.43;;
6121;SDS011;3091;51.506;7.672;2023-02-14T06:13:29;21.13;;;19.90;;
6121;SDS011;3091;51.506;7.672;2023-02-14T06:15:55;18.93;;;18.03;;
6121;SDS011;3091;51.506;7.672;2023-02-14T06:18:21;19.80;;;18.80;;
6121;SDS011;3091;51.506;7.672;2023-02-14T06:20:51;18.33;;;17.53;;
6121;SDS011;3091;51.506;7.672;2023-02-14T06:23:18;20.30;;;19.33;;
6121;SDS011;3091;51.506;7.672;2023-02-14T06:25:44;19.57;;;18.67;;
6121;SDS011;3091;51.506;7.672;2023-02-14T06:28:10;19.37;;;18.47;;
6121;SDS011;3091;51.506;7.672;2023-02-14T06:30:36;20.17;;;19.17;;
6121;SDS011;3091;51.506;7.672;2023-02-14T06:33:02;19.70;;;18.80;;
6121;SDS011;3091;51.506;7.672;2023-02-14T06:35:28;19.23;;;18.43;;
6121;SDS011;3091;51.506;7.672;2023-02-14T06:37:54;20.40;;;19.40;;
6121;SDS011;3091;51.506;7.672;2023-02-14T06:40:20;19.40;;;18.50;;
6121;SDS011;3091;51.506;7.672;2023-02-14T06:42:46;19.97;;;18.97;;
6121;SDS011;3091;51.506;7.672;2023-02-14T06:45:12;19.97;;;19.07;;
6121;SDS011;3091;51.506;7.672;2023-02-14T06:47:38;20.07;;;19.17;;
6121;SDS011;3091;51.506;7.672;2023-02-14T06:50:04;21.93;;;20.93;;
6121;SDS011;3091;51.506;7.672;2023-02-14T06:52:31;21.90;;;20.60;;
6121;SDS011;3091;51.506;7.672;2023-02-14T06:54:57;20.70;;;19.50;;
6121;SDS011;3091;51.506;7.672;2023-02-14T06:57:23;20.87;;;19.87;;
6121;SDS011;3091;51.506;7.672;2023-02-14T06:59:49;19.40;;;18.50;;
6121;SDS011;3091;51.506;7.672;2023-02-14T07:02:15;18.73;;;17.83;;
6121;SDS011;3091;51.506;7.672;2023-02-14T07:04:41;18.47;;;17.67;;
6121;SDS011;3091;51.506;7.672;2023-02-14T07:07:07;17.90;;;17.00;;
6121;SDS011;3091;51.506;7.672;2023-02-14T07:09:33;16.87;;;16.17;;
6121;SDS011;3091;51.506;7.672;2023-02-14T07:11:59;15.60;;;15.00;;
6121;SDS011;3091;51.506;7.672;2023-02-14T07:14:25;15.30;;;14.70;;
6121;SDS011;3091;51.506;7.672;2023-02-14T07:16:51;15.00;;;14.40;;
6121;SDS011;3091;51.506;7.672;2023-02-14T07:19:17;15.10;;;14.50;;
6121;SDS011;3091;51.506;7.672;2023-02-14T07:21:43;14.93;;;14.33;;
6121;SDS011;3091;51.506;7.672;2023-02-14T07:24:09;15.23;;;14.63;;
6121;SDS011;3091;51.506;7.672;2023-02-14T07:26:35;14.20;;;13.70;;
6121;SDS011;3091;51.506;7.672;2023-02-14T07:29:01;14.33;;;13.73;;
6121;SDS011;3091;51.506;7.672;2023-02-14T07:31:28;14.50;;;13.90;;
6121;SDS011;3091;51.506;7.672;2023-02-14T07:33:54;13.73;;;13.03;;
6121;SDS011;3091;51.506;7.672;2023-02-14T07:36:20;13.63;;;13.13;;
6121;SDS011;3091;51.506;7.672;2023-02-14T07:38:46;12.53;;;12.13;;
6121;SDS011;3091;51.506;7.672;2023-02-14T07:41:12;11.60;;;11.20;;
6121;SDS011;3091;51.506;7.672;2023-02-14T07:43:38;12.90;;;12.20;;
6121;SDS011;3091;51.506;7.672;2023-02-14T07:46:04;12.10;;;11.70;;
6121;SDS011;3091;51.506;7.672;2023-02-14T07:48:30;12.00;;;11.60;;
6121;SDS011;3091;51.506;7.672;2023-02-14T07:50:56;12.20;;;11.80;;
6121;SDS011;3091;51.506;7.672;2023-02-14T07:53:23;12.97;;;12.53;;
6121;SDS011;3091;51.506;7.672;2023-02-14T07:55:49;12.40;;;12.00;;
6121;SDS011;3091;51.506;7.672;2023-02-14T07:58:15;12.00;;;11.60;;
6121;SDS011;3091;51.506;7.672;2023-02-14T08:00:42;13.60;;;13.00;;
6121;SDS011;3091;51.506;7.672;2023-02-14T08:03:08;12.23;;;11.83;;
6121;SDS011;3091;51.506;7.672;2023-02-14T08:05:34;12.60;;;12.20;;
6121;SDS011;3091;51.506;7.672;2023-02-14T08:08:00;12.93;;;12.43;;
6121;SDS011;3091;51.506;7.672;2023-02-14T08:10:26;12.90;;;12.40;;
6121;SDS011;3091;51.506;7.672;2023-02-14T08:12:52;12.67;;;12.17;;
6121;SDS011;3091;51.506;7.672;2023-02-14T08:15:33;13.97;;;13.33;;
6121;SDS011;3091;51.506;7.672;2023-02-14T08:18:19;13.00;;;12.50;;
6121;SDS011;3091;51.506;7.672;2023-02-14T08:20:45;12.93;;;12.43;;
6121;SDS011;3091;51.506;7.672;2023-02-14T08:23:16;12.03;;;11.63;;
6121;SDS011;3091;51.506;7.672;2023-02-14T08:25:42;12.10;;;11.70;;
6121;SDS011;3091;51.506;7.672;2023-02-14T08:28:08;11.90;;;11.50;;
6121;SDS011;3091;51.506;7.672;2023-02-14T08:30:37;11.90;;;11.50;;
6121;SDS011;3091;51.506;7.672;2023-02-14T08:33:03;12.43;;;11.93;;
6121;SDS011;3091;51.506;7.672;2023-02-14T08:35:29;12.00;;;11.60;;
6121;SDS011;3091;51.506;7.672;2023-02-14T08:37:55;12.47;;;12.00;;
6121;SDS011;3091;51.506;7.672;2023-02-14T08:40:22;12.33;;;11.93;;
6121;SDS011;3091;51.506;7.672;2023-02-14T08:42:48;13.07;;;12.57;;
6121;SDS011;3091;51.506;7.672;2023-02-14T08:45:16;13.30;;;12.80;;
6121;SDS011;3091;51.506;7.672;2023-02-14T08:47:42;13.10;;;12.60;;
6121;SDS011;3091;51.506;7.672;2023-02-14T08:50:13;13.50;;;13.00;;
6121;SDS011;3091;51.506;7.672;2023-02-14T08:52:40;13.23;;;12.73;;
6121;SDS011;3091;51.506;7.672;2023-02-14T08:55:08;13.60;;;13.10;;
6121;SDS011;3091;51.506;7.672;2023-02-14T08:57:34;12.50;;;12.10;;
6121;SDS011;3091;51.506;7.672;2023-02-14T09:00:00;13.57;;;13.07;;
6121;SDS011;3091;51.506;7.672;2023-02-14T09:02:26;14.43;;;13.83;;
6121;SDS011;3091;51.506;7.672;2023-02-14T09:04:53;13.40;;;12.90;;
6121;SDS011;3091;51.506;7.672;2023-02-14T09:07:19;13.70;;;13.20;;
6121;SDS011;3091;51.506;7.672;2023-02-14T09:09:45;13.90;;;13.40;;
6121;SDS011;3091;51.506;7.672;2023-02-14T09:12:11;13.10;;;12.60;;
6121;SDS011;3091;51.506;7.672;2023-02-14T09:14:40;12.50;;;12.00;;
6121;SDS011;3091;51.506;7.672;2023-02-14T09:17:10;13.10;;;12.60;;
6121;SDS011;3091;51.506;7.672;2023-02-14T09:19:37;12.73;;;12.23;;
6121;SDS011;3091;51.506;7.672;2023-02-14T09:22:04;12.67;;;12.20;;
6121;SDS011;3091;51.506;7.672;2023-02-14T09:24:31;12.70;;;12.20;;
6121;SDS011;3091;51.506;7.672;2023-02-14T09:26:57;13.77;;;13.13;;
6121;SDS011;3091;51.506;7.672;2023-02-14T09:29:23;13.40;;;12.90;;
6121;SDS011;3091;51.506;7.672;2023-02-14T09:31:53;12.60;;;12.10;;
6121;SDS011;3091;51.506;7.672;2023-02-14T09:34:19;12.60;;;12.20;;
6121;SDS011;3091;51.506;7.672;2023-02-14T09:36:45;13.00;;;12.50;;
6121;SDS011;3091;51.506;7.672;2023-02-14T09:39:11;12.90;;;12.40;;
6121;SDS011;3091;51.506;7.672;2023-02-14T09:44:30;14.37;;;13.77;;
6121;SDS011;3091;51.506;7.672;2023-02-14T09:47:00;13.50;;;13.00;;
6121;SDS011;3091;51.506;7.672;2023-02-14T09:49:30;13.47;;;12.97;;
6121;SDS011;3091;51.506;7.672;2023-02-14T09:51:57;14.03;;;13.53;;
6121;SDS011;3091;51.506;7.672;2023-02-14T09:54:25;13.90;;;13.40;;
6121;SDS011;3091;51.506;7.672;2023-02-14T09:57:03;14.07;;;13.50;;
6121;SDS011;3091;51.506;7.672;2023-02-14T10:12:53;13.70;;;13.20;;
6121;SDS011;3091;51.506;7.672;2023-02-14T10:15:25;14.00;;;13.40;;
6121;SDS011;3091;51.506;7.672;2023-02-14T10:20:28;14.03;;;13.50;;
6121;SDS011;3091;51.506;7.672;2023-02-14T10:22:58;13.00;;;12.50;;
6121;SDS011;3091;51.506;7.672;2023-02-14T10:25:28;13.00;;;12.50;;
6121;SDS011;3091;51.506;7.672;2023-02-14T10:27:57;13.60;;;13.10;;
6121;SDS011;3091;51.506;7.672;2023-02-14T10:30:23;13.47;;;12.97;;
6121;SDS011;3091;51.506;7.672;2023-02-14T10:37:55;13.87;;;13.37;;
6121;SDS011;3091;51.506;7.672;2023-02-14T10:43:00;14.40;;;13.83;;
6121;SDS011;3091;51.506;7.672;2023-02-14T10:50:36;13.70;;;13.20;;
6121;SDS011;3091;51.506;7.672;2023-02-14T10:58:10;13.70;;;13.20;;
6121;SDS011;3091;51.506;7.672;2023-02-14T11:00:38;13.03;;;12.53;;
6121;SDS011;3091;51.506;7.672;2023-02-14T11:03:06;12.70;;;12.30;;
6121;SDS011;3091;51.506;7.672;2023-02-14T11:05:35;13.57;;;12.97;;
6121;SDS011;3091;51.506;7.672;2023-02-14T11:10:38;13.13;;;12.63;;
6121;SDS011;3091;51.506;7.672;2023-02-14T11:13:23;13.73;;;13.23;;
6121;SDS011;3091;51.506;7.672;2023-02-14T11:15:50;14.60;;;14.00;;
6121;SDS011;3091;51.506;7.672;2023-02-14T11:18:22;14.83;;;14.23;;
6121;SDS011;3091;51.506;7.672;2023-02-14T11:20:58;13.30;;;12.80;;
6121;SDS011;3091;51.506;7.672;2023-02-14T11:23:25;12.77;;;12.37;;
6121;SDS011;3091;51.506;7.672;2023-02-14T11:25:51;12.80;;;12.40;;
6121;SDS011;3091;51.506;7.672;2023-02-14T11:28:20;13.00;;;12.60;;
6121;SDS011;3091;51.506;7.672;2023-02-14T11:30:47;13.00;;;12.60;;
6121;SDS011;3091;51.506;7.672;2023-02-14T11:35:54;13.63;;;13.13;;
6121;SDS011;3091;51.506;7.672;2023-02-14T11:38:34;13.90;;;13.40;;
6121;SDS011;3091;51.506;7.672;2023-02-14T11:41:02;14.40;;;13.90;;
6121;SDS011;3091;51.506;7.672;2023-02-14T11:43:33;15.53;;;14.93;;
6121;SDS011;3091;51.506;7.672;2023-02-14T11:46:05;14.07;;;13.50;;
6121;SDS011;3091;51.506;7.672;2023-02-14T11:48:31;13.90;;;13.20;;
6121;SDS011;3091;51.506;7.672;2023-02-14T11:51:03;13.30;;;12.80;;
6121;SDS011;3091;51.506;7.672;2023-02-14T11:56:20;14.67;;;13.97;;
6121;SDS011;3091;51.506;7.672;2023-02-14T11:58:48;13.43;;;12.93;;
6121;SDS011;3091;51.506;7.672;2023-02-14T12:01:24;13.40;;;12.90;;
6121;SDS011;3091;51.506;7.672;2023-02-14T12:03:51;15.90;;;15.17;;
6121;SDS011;3091;51.506;7.672;2023-02-14T12:06:22;13.90;;;13.40;;
6121;SDS011;3091;51.506;7.672;2023-02-14T12:08:49;13.50;;;13.00;;
6121;SDS011;3091;51.506;7.672;2023-02-14T12:11:22;13.27;;;12.83;;
6121;SDS011;3091;51.506;7.672;2023-02-14T12:13:52;12.93;;;12.53;;
6121;SDS011;3091;51.506;7.672;2023-02-14T12:16:20;12.90;;;12.50;;
6121;SDS011;3091;51.506;7.672;2023-02-14T12:18:54;12.73;;;12.33;;
6121;SDS011;3091;51.506;7.672;2023-02-14T12:29:14;13.13;;;12.73;;
6121;SDS011;3091;51.506;7.672;2023-02-14T12:31:42;13.97;;;13.47;;
6121;SDS011;3091;51.506;7.672;2023-02-14T12:34:10;14.20;;;13.70;;
6121;SDS011;3091;51.506;7.672;2023-02-14T12:42:01;13.90;;;13.40;;
6121;SDS011;3091;51.506;7.672;2023-02-14T12:47:12;13.37;;;12.90;;
6121;SDS011;3091;51.506;7.672;2023-02-14T13:02:51;12.97;;;12.57;;
6121;SDS011;3091;51.506;7.672;2023-02-14T13:08:22;13.90;;;13.40;;
6121;SDS011;3091;51.506;7.672;2023-02-14T13:11:00;12.70;;;12.30;;
6121;SDS011;3091;51.506;7.672;2023-02-14T13:18:48;13.33;;;12.93;;
6121;SDS011;3091;51.506;7.672;2023-02-14T13:21:18;12.80;;;12.40;;
6121;SDS011;3091;51.506;7.672;2023-02-14T13:23:47;13.67;;;13.17;;
6121;SDS011;3091;51.506;7.672;2023-02-14T13:26:17;14.40;;;13.90;;
6121;SDS011;3091;51.506;7.672;2023-02-14T13:29:05;14.57;;;14.07;;
6121;SDS011;3091;51.506;7.672;2023-02-14T13:31:31;14.00;;;13.40;;
6121;SDS011;3091;51.506;7.672;2023-02-14T13:34:40;14.57;;;13.97;;
6121;SDS011;3091;51.506;7.672;2023-02-14T13:36:47;13.30;;;12.80;;
6121;SDS011;3091;51.506;7.672;2023-02-14T13:39:18;13.47;;;12.97;;
6121;SDS011;3091;51.506;7.672;2023-02-14T13:41:47;13.60;;;13.10;;
6121;SDS011;3091;51.506;7.672;2023-02-14T13:44:34;13.20;;;12.70;;
6121;SDS011;3091;51.506;7.672;2023-02-14T13:46:59;13.83;;;13.33;;
6121;SDS011;3091;51.506;7.672;2023-02-14T13:49:27;13.60;;;13.10;;
6121;SDS011;3091;51.506;7.672;2023-02-14T13:51:55;14.10;;;13.60;;
6121;SDS011;3091;51.506;7.672;2023-02-14T13:56:56;14.70;;;14.13;;
6121;SDS011;3091;51.506;7.672;2023-02-14T13:59:30;14.00;;;13.40;;
6121;SDS011;3091;51.506;7.672;2023-02-14T14:04:41;13.57;;;13.07;;
6121;SDS011;3091;51.506;7.672;2023-02-14T14:07:14;14.30;;;13.70;;
6121;SDS011;3091;51.506;7.672;2023-02-14T14:15:08;13.10;;;12.60;;
6121;SDS011;3091;51.506;7.672;2023-02-14T14:17:37;13.60;;;13.10;;
6121;SDS011;3091;51.506;7.672;2023-02-14T14:22:47;13.60;;;13.10;;
6121;SDS011;3091;51.506;7.672;2023-02-14T14:25:27;13.93;;;13.43;;
6121;SDS011;3091;51.506;7.672;2023-02-14T14:27:57;13.80;;;13.30;;
6121;SDS011;3091;51.506;7.672;2023-02-14T14:30:24;13.00;;;12.60;;
6121;SDS011;3091;51.506;7.672;2023-02-14T14:32:52;13.90;;;13.40;;
6121;SDS011;3091;51.506;7.672;2023-02-14T14:35:20;14.00;;;13.30;;
6121;SDS011;3091;51.506;7.672;2023-02-14T14:40:26;14.50;;;13.80;;
6121;SDS011;3091;51.506;7.672;2023-02-14T14:42:56;13.67;;;13.17;;
6121;SDS011;3091;51.506;7.672;2023-02-14T14:45:25;13.40;;;12.90;;
6121;SDS011;3091;51.506;7.672;2023-02-14T14:47:52;14.50;;;13.70;;
6121;SDS011;3091;51.506;7.672;2023-02-14T14:50:23;13.80;;;13.30;;
6121;SDS011;3091;51.506;7.672;2023-02-14T14:53:02;14.70;;;14.10;;
6121;SDS011;3091;51.506;7.672;2023-02-14T14:55:33;13.50;;;13.00;;
6121;SDS011;3091;51.506;7.672;2023-02-14T14:58:01;14.43;;;13.93;;
6121;SDS011;3091;51.506;7.672;2023-02-14T15:00:32;14.53;;;13.87;;
6121;SDS011;3091;51.506;7.672;2023-02-14T15:03:00;14.20;;;13.67;;
6121;SDS011;3091;51.506;7.672;2023-02-14T15:16:34;14.37;;;13.70;;
6121;SDS011;3091;51.506;7.672;2023-02-14T15:19:10;14.23;;;13.73;;
6121;SDS011;3091;51.506;7.672;2023-02-14T15:21:41;14.23;;;13.53;;
6121;SDS011;3091;51.506;7.672;2023-02-14T15:24:28;13.83;;;13.30;;
6121;SDS011;3091;51.506;7.672;2023-02-14T15:26:55;13.67;;;13.17;;
6121;SDS011;3091;51.506;7.672;2023-02-14T15:29:26;12.00;;;11.60;;
6121;SDS011;3091;51.506;7.672;2023-02-14T15:31:55;11.70;;;11.30;;
6121;SDS011;3091;51.506;7.672;2023-02-14T15:34:28;14.07;;;13.57;;
6121;SDS011;3091;51.506;7.672;2023-02-14T15:36:57;11.90;;;11.30;;
6121;SDS011;3091;51.506;7.672;2023-02-14T15:39:39;12.10;;;11.70;;
6121;SDS011;3091;51.506;7.672;2023-02-14T15:42:16;13.77;;;13.27;;
6121;SDS011;3091;51.506;7.672;2023-02-14T15:44:46;14.20;;;13.70;;
6121;SDS011;3091;51.506;7.672;2023-02-14T15:47:13;14.00;;;13.50;;
6121;SDS011;3091;51.506;7.672;2023-02-14T15:49:40;12.77;;;12.10;;
6121;SDS011;3091;51.506;7.672;2023-02-14T15:52:10;12.50;;;12.10;;
6121;SDS011;3091;51.506;7.672;2023-02-14T15:54:37;12.23;;;11.83;;
6121;SDS011;3091;51.506;7.672;2023-02-14T15:57:05;13.07;;;12.47;;
6121;SDS011;3091;51.506;7.672;2023-02-14T15:59:32;12.40;;;12.00;;
6121;SDS011;3091;51.506;7.672;2023-02-14T16:02:25;12.30;;;11.90;;
6121;SDS011;3091;51.506;7.672;2023-02-14T16:04:45;12.60;;;12.20;;
6121;SDS011;3091;51.506;7.672;2023-02-14T16:07:22;14.63;;;14.13;;
6121;SDS011;3091;51.506;7.672;2023-02-14T16:09:49;13.90;;;13.40;;
6121;SDS011;3091;51.506;7.672;2023-02-14T16:14:57;14.70;;;14.10;;
6121;SDS011;3091;51.506;7.672;2023-02-14T16:17:34;14.67;;;14.07;;
6121;SDS011;3091;51.506;7.672;2023-02-14T16:20:22;14.50;;;14.00;;
6121;SDS011;3091;51.506;7.672;2023-02-14T16:22:47;14.57;;;13.87;;
6121;SDS011;3091;51.506;7.672;2023-02-14T16:25:16;14.40;;;13.90;;
6121;SDS011;3091;51.506;7.672;2023-02-14T16:27:42;13.70;;;13.20;;
6121;SDS011;3091;51.506;7.672;2023-02-14T16:30:15;14.20;;;13.70;;
6121;SDS011;3091;51.506;7.672;2023-02-14T16:32:41;14.00;;;13.50;;
6121;SDS011;3091;51.506;7.672;2023-02-14T16:37:59;16.23;;;15.63;;
6121;SDS011;3091;51.506;7.672;2023-02-14T16:40:26;16.50;;;15.90;;
6121;SDS011;3091;51.506;7.672;2023-02-14T16:42:52;14.47;;;13.87;;
6121;SDS011;3091;51.506;7.672;2023-02-14T16:45:21;14.43;;;13.93;;
6121;SDS011;3091;51.506;7.672;2023-02-14T16:47:47;14.37;;;13.87;;
6121;SDS011;3091;51.506;7.672;2023-02-14T16:50:13;14.07;;;13.57;;
6121;SDS011;3091;51.506;7.672;2023-02-14T16:52:40;17.20;;;16.60;;
6121;SDS011;3091;51.506;7.672;2023-02-14T16:55:13;15.60;;;15.10;;
6121;SDS011;3091;51.506;7.672;2023-02-14T16:57:40;15.70;;;15.20;;
6121;SDS011;3091;51.506;7.672;2023-02-14T17:00:09;15.50;;;15.00;;
6121;SDS011;3091;51.506;7.672;2023-02-14T17:02:36;15.97;;;15.37;;
6121;SDS011;3091;51.506;7.672;2023-02-14T17:05:04;17.10;;;16.50;;
6121;SDS011;3091;51.506;7.672;2023-02-14T17:07:31;16.20;;;15.60;;
6121;SDS011;3091;51.506;7.672;2023-02-14T17:10:02;16.70;;;16.10;;
6121;SDS011;3091;51.506;7.672;2023-02-14T17:12:31;17.80;;;17.20;;
6121;SDS011;3091;51.506;7.672;2023-02-14T17:15:01;16.57;;;15.97;;
6121;SDS011;3091;51.506;7.672;2023-02-14T17:17:30;17.40;;;16.70;;
6121;SDS011;3091;51.506;7.672;2023-02-14T17:19:56;16.97;;;16.27;;
6121;SDS011;3091;51.506;7.672;2023-02-14T17:22:22;16.77;;;16.17;;
6121;SDS011;3091;51.506;7.672;2023-02-14T17:24:48;17.50;;;16.80;;
6121;SDS011;3091;51.506;7.672;2023-02-14T17:27:14;17.23;;;16.53;;
6121;SDS011;3091;51.506;7.672;2023-02-14T17:29:40;18.90;;;18.10;;
6121;SDS011;3091;51.506;7.672;2023-02-14T17:32:09;19.83;;;18.93;;
6121;SDS011;3091;51.506;7.672;2023-02-14T17:34:36;19.37;;;18.47;;